createdAt,value
2022-11-19T00:00:31.222Z,46.53
2022-11-19T00:02:04.555Z,54.03
2022-11-19T00:03:39.327Z,52.08
2022-11-19T00:05:12.504Z,53.63
2022-11-19T00:06:45.625Z,47.70
2022-11-19T00:08:20.966Z,57.10
2022-11-19T00:09:54.084Z,45.05
2022-11-19T00:11:46.349Z,42.05
2022-11-19T00:13:20.959Z,40.17
2022-11-19T00:14:53.208Z,42.15
2022-11-19T00:16:26.317Z,46.63
2022-11-19T00:18:00.523Z,44.97
2022-11-19T00:19:33.741Z,45.47
2022-11-19T00:21:08.689Z,42.45
2022-11-19T00:22:42.788Z,41.38
2022-11-19T00:24:16.041Z,41.50
2022-11-19T00:25:49.296Z,40.33
2022-11-19T00:27:22.622Z,41.28
2022-11-19T00:28:57.242Z,42.38
2022-11-19T00:30:47.609Z,44.67
2022-11-19T00:32:21.733Z,40.05
2022-11-19T00:33:55.790Z,38.47
2022-11-19T00:35:27.923Z,43.40
2022-11-19T00:37:01.319Z,41.15
2022-11-19T00:38:34.984Z,33.78
2022-11-19T00:40:11.924Z,35.85
2022-11-19T00:41:45.103Z,36.83
2022-11-19T00:43:35.983Z,40.75
2022-11-19T00:45:11.748Z,42.60
2022-11-19T00:46:44.974Z,43.60
2022-11-19T00:48:17.282Z,44.80
2022-11-19T00:49:50.617Z,38.58
2022-11-19T00:51:24.110Z,46.60
2022-11-19T00:52:57.383Z,43.42
2022-11-19T00:54:30.533Z,34.42
2022-11-19T00:56:04.822Z,44.33
2022-11-19T00:57:38.000Z,38.55
2022-11-19T00:59:11.578Z,34.50
2022-11-19T01:00:45.274Z,35.03
2022-11-19T01:02:18.728Z,30.27
2022-11-19T01:03:52.183Z,32.58
2022-11-19T01:05:25.594Z,32.38
2022-11-19T01:06:58.763Z,27.10
2022-11-19T01:08:31.625Z,26.60
2022-11-19T01:10:05.278Z,31.23
2022-11-19T01:11:39.722Z,30.60
2022-11-19T01:13:30.240Z,31.67
2022-11-19T01:15:03.488Z,26.20
2022-11-19T01:16:39.845Z,26.45
2022-11-19T01:18:13.127Z,23.85
2022-11-19T01:19:46.249Z,19.33
2022-11-19T01:21:21.266Z,26.40
2022-11-19T01:22:53.414Z,25.48
2022-11-19T01:24:26.629Z,25.85
2022-11-19T01:25:59.738Z,27.73
2022-11-19T01:27:33.090Z,28.35
2022-11-19T01:29:06.262Z,25.55
2022-11-19T01:30:40.886Z,25.38
2022-11-19T01:32:15.371Z,25.10
2022-11-19T01:33:49.542Z,30.90
2022-11-19T01:35:21.720Z,23.40
2022-11-19T01:36:55.025Z,24.35
2022-11-19T01:38:28.178Z,22.90
2022-11-19T01:40:01.461Z,26.17
2022-11-19T01:41:35.008Z,21.30
2022-11-19T01:43:10.962Z,21.75
2022-11-19T01:45:03.622Z,22.40
2022-11-19T01:46:39.813Z,21.27
2022-11-19T01:48:18.922Z,21.25
2022-11-19T01:49:52.510Z,24.63
2022-11-19T01:51:30.482Z,25.38
2022-11-19T01:53:02.831Z,24.10
2022-11-19T01:54:40.269Z,23.33
2022-11-19T01:56:13.427Z,23.20
2022-11-19T01:57:46.998Z,26.60
2022-11-19T01:59:21.093Z,32.33
2022-11-19T02:00:54.549Z,29.60
2022-11-19T02:02:26.898Z,22.23
2022-11-19T02:04:03.214Z,22.55
2022-11-19T02:05:37.386Z,30.80
2022-11-19T02:07:12.704Z,23.60
2022-11-19T02:08:47.529Z,24.75
2022-11-19T02:10:20.502Z,20.80
2022-11-19T02:12:10.738Z,23.42
2022-11-19T02:13:49.891Z,20.63
2022-11-19T02:15:33.503Z,23.50
2022-11-19T02:17:16.601Z,24.77
2022-11-19T02:18:55.953Z,23.92
2022-11-19T02:20:46.867Z,21.92
2022-11-19T02:22:38.393Z,25.15
2022-11-19T02:24:35.839Z,23.48
2022-11-19T02:26:50.335Z,25.05
2022-11-19T02:28:34.640Z,20.52
2022-11-19T02:30:11.149Z,29.38
2022-11-19T02:31:52.705Z,17.02
2022-11-19T02:33:35.387Z,18.42
2022-11-19T02:35:18.773Z,21.85
2022-11-19T02:36:59.184Z,26.85
2022-11-19T02:38:39.037Z,25.95
2022-11-19T02:40:19.338Z,24.27
2022-11-19T02:42:00.849Z,29.48
2022-11-19T02:43:41.129Z,27.05
2022-11-19T02:45:19.681Z,25.38
2022-11-19T02:46:55.071Z,23.85
2022-11-19T02:48:33.950Z,27.80
2022-11-19T02:50:11.794Z,26.50
2022-11-19T02:51:49.212Z,22.77
2022-11-19T02:53:23.122Z,23.70
2022-11-19T02:54:55.753Z,27.70
2022-11-19T02:56:51.523Z,23.08
2022-11-19T02:58:38.972Z,26.95
2022-11-19T03:00:31.409Z,31.63
2022-11-19T03:02:25.115Z,28.42
2022-11-19T03:04:16.252Z,32.80
2022-11-19T03:05:54.727Z,39.58
2022-11-19T03:07:28.102Z,43.53
2022-11-19T03:09:02.160Z,39.15
2022-11-19T03:10:45.694Z,38.05
2022-11-19T03:12:29.902Z,130.85
2022-11-19T03:14:31.089Z,67.00
2022-11-19T03:16:27.392Z,48.20
2022-11-19T03:18:12.399Z,38.53
2022-11-19T03:19:51.686Z,39.15
2022-11-19T03:21:31.341Z,34.25
2022-11-19T03:23:09.964Z,39.22
2022-11-19T03:24:46.882Z,42.35
2022-11-19T03:26:24.819Z,38.65
2022-11-19T03:28:02.523Z,37.15
2022-11-19T03:29:39.844Z,35.60
2022-11-19T03:31:14.212Z,38.92
2022-11-19T03:32:52.608Z,37.70
2022-11-19T03:34:31.582Z,33.03
2022-11-19T03:36:09.900Z,38.92
2022-11-19T03:37:46.071Z,34.65
2022-11-19T03:39:21.994Z,38.47
2022-11-19T03:40:56.558Z,40.53
2022-11-19T03:42:30.827Z,38.47
2022-11-19T03:44:08.759Z,38.55
2022-11-19T03:45:45.058Z,32.42
2022-11-19T03:47:23.914Z,34.63
2022-11-19T03:48:58.755Z,37.72
2022-11-19T03:50:40.488Z,29.42
2022-11-19T03:52:16.269Z,33.95
2022-11-19T03:53:50.226Z,34.83
2022-11-19T03:55:29.570Z,33.60
2022-11-19T03:57:03.799Z,36.58
2022-11-19T03:58:39.852Z,36.13
2022-11-19T04:00:13.775Z,32.42
2022-11-19T04:01:52.034Z,39.10
2022-11-19T04:03:25.340Z,36.20
2022-11-19T04:04:57.496Z,33.33
2022-11-19T04:06:32.123Z,31.02
2022-11-19T04:08:05.542Z,30.52
2022-11-19T04:09:38.412Z,29.88
2022-11-19T04:12:50.410Z,26.63
2022-11-19T04:14:22.565Z,24.75
2022-11-19T04:15:55.887Z,102.60
2022-11-19T04:17:27.992Z,304.83
2022-11-19T04:19:01.197Z,132.57
2022-11-19T04:20:34.460Z,70.82
2022-11-19T04:22:09.250Z,33.08
2022-11-19T04:23:41.384Z,29.33
2022-11-19T04:25:14.615Z,22.52
2022-11-19T04:26:46.945Z,19.05
2022-11-19T04:28:20.233Z,25.90
2022-11-19T04:29:53.522Z,19.70
2022-11-19T04:31:26.709Z,18.50
2022-11-19T04:32:59.869Z,19.60
2022-11-19T04:34:33.106Z,14.48
2022-11-19T04:36:06.980Z,22.85
2022-11-19T04:37:41.547Z,18.05
2022-11-19T04:39:14.667Z,18.67
2022-11-19T04:40:47.346Z,19.05
2022-11-19T04:42:20.483Z,18.33
2022-11-19T04:43:52.667Z,15.63
2022-11-19T04:45:25.830Z,16.63
2022-11-19T04:46:59.788Z,17.15
2022-11-19T04:48:31.999Z,16.02
2022-11-19T04:50:05.686Z,20.33
2022-11-19T04:51:38.812Z,18.83
2022-11-19T04:53:12.543Z,25.55
2022-11-19T04:54:45.678Z,21.13
2022-11-19T04:56:17.951Z,23.98
2022-11-19T04:57:51.952Z,23.95
2022-11-19T04:59:25.326Z,25.65
2022-11-19T05:00:57.464Z,22.00
2022-11-19T05:02:30.707Z,19.02
2022-11-19T05:04:03.844Z,22.48
2022-11-19T05:05:36.159Z,19.75
2022-11-19T05:07:09.341Z,18.90
2022-11-19T05:08:43.918Z,18.08
2022-11-19T05:10:16.103Z,19.20
2022-11-19T05:11:49.458Z,25.67
2022-11-19T05:13:22.648Z,23.20
2022-11-19T05:14:55.855Z,20.45
2022-11-19T05:16:29.046Z,18.25
2022-11-19T05:18:01.346Z,18.33
2022-11-19T05:19:34.547Z,16.05
2022-11-19T05:21:07.962Z,16.05
2022-11-19T05:22:41.089Z,18.20
2022-11-19T05:24:15.781Z,21.58
2022-11-19T05:25:49.082Z,29.67
2022-11-19T05:27:21.310Z,71.25
2022-11-19T05:28:54.452Z,121.47
2022-11-19T05:30:26.686Z,19.85
2022-11-19T05:31:59.848Z,16.27
2022-11-19T05:33:34.546Z,18.08
2022-11-19T05:35:08.914Z,17.70
2022-11-19T05:36:42.306Z,15.90
2022-11-19T05:38:15.427Z,14.50
2022-11-19T05:39:49.991Z,14.95
2022-11-19T05:41:23.174Z,17.20
2022-11-19T05:42:56.477Z,16.08
2022-11-19T05:44:29.683Z,18.05
2022-11-19T05:46:03.292Z,23.45
2022-11-19T05:47:35.453Z,21.67
2022-11-19T05:49:08.762Z,19.80
2022-11-19T05:50:42.543Z,149.68
2022-11-19T05:52:14.731Z,117.20
2022-11-19T05:53:47.958Z,111.43
2022-11-19T05:55:22.696Z,176.75
2022-11-19T05:56:55.873Z,239.18
2022-11-19T05:58:29.194Z,217.93
2022-11-19T06:00:02.303Z,159.82
2022-11-19T06:01:45.436Z,157.23
2022-11-19T06:03:18.651Z,180.70
2022-11-19T06:04:50.840Z,214.88
2022-11-19T06:06:25.526Z,185.02
2022-11-19T06:07:59.138Z,139.93
2022-11-19T06:09:31.323Z,95.25
2022-11-19T06:11:06.007Z,49.35
2022-11-19T06:12:42.476Z,44.05
2022-11-19T06:14:22.145Z,50.28
2022-11-19T06:15:55.274Z,26.38
2022-11-19T06:17:28.487Z,39.92
2022-11-19T06:19:01.595Z,35.42
2022-11-19T06:20:34.886Z,56.90
2022-11-19T06:22:08.040Z,83.93
2022-11-19T06:23:41.258Z,39.58
2022-11-19T06:25:14.927Z,28.20
2022-11-19T06:26:49.682Z,30.08
2022-11-19T06:28:22.776Z,20.55
2022-11-19T06:29:56.485Z,35.55
2022-11-19T06:31:29.864Z,27.63
2022-11-19T06:33:03.162Z,16.63
2022-11-19T06:34:36.321Z,22.08
2022-11-19T06:36:10.430Z,23.92
2022-11-19T06:37:43.587Z,32.53
2022-11-19T06:39:17.316Z,34.75
2022-11-19T06:40:50.564Z,32.40
2022-11-19T06:42:37.412Z,20.30
2022-11-19T06:44:10.607Z,33.97
2022-11-19T06:45:43.842Z,19.45
2022-11-19T06:47:17.067Z,34.35
2022-11-19T06:48:50.327Z,125.35
2022-11-19T06:50:23.426Z,22.13
2022-11-19T06:51:55.739Z,18.30
2022-11-19T06:53:28.973Z,19.60
2022-11-19T06:55:02.365Z,14.93
2022-11-19T06:56:35.483Z,16.35
2022-11-19T06:58:10.591Z,18.77
2022-11-19T06:59:43.747Z,14.30
2022-11-19T07:01:17.053Z,14.05
2022-11-19T07:02:50.208Z,11.93
2022-11-19T07:04:23.617Z,10.73
2022-11-19T07:06:00.223Z,8.45
2022-11-19T07:07:33.428Z,9.07
2022-11-19T07:09:06.655Z,11.80
2022-11-19T07:10:40.033Z,11.48
2022-11-19T07:12:13.202Z,14.27
2022-11-19T07:14:00.209Z,8.85
2022-11-19T07:15:33.559Z,10.30
2022-11-19T07:17:07.011Z,8.98
2022-11-19T07:18:39.397Z,8.98
2022-11-19T07:20:12.911Z,10.23
2022-11-19T07:21:46.394Z,13.57
2022-11-19T07:23:20.396Z,9.77
2022-11-19T07:24:53.512Z,10.88
2022-11-19T07:26:27.052Z,7.30
2022-11-19T07:28:00.227Z,7.18
2022-11-19T07:29:34.855Z,9.30
2022-11-19T07:31:08.509Z,9.38
2022-11-19T07:32:41.837Z,9.63
2022-11-19T07:34:14.931Z,6.72
2022-11-19T07:35:48.256Z,9.65
2022-11-19T07:37:21.450Z,28.67
2022-11-19T07:38:54.611Z,19.33
2022-11-19T07:40:27.844Z,7.28
2022-11-19T07:42:18.871Z,4.28
2022-11-19T07:43:57.558Z,4.88
2022-11-19T07:45:32.131Z,6.07
2022-11-19T07:47:07.505Z,5.40
2022-11-19T07:48:40.929Z,5.65
2022-11-19T07:50:14.278Z,4.38
2022-11-19T07:51:47.712Z,5.57
2022-11-19T07:53:20.862Z,4.47
2022-11-19T07:54:54.280Z,12.23
2022-11-19T07:56:27.543Z,12.40
2022-11-19T07:58:00.860Z,8.88
2022-11-19T07:59:34.054Z,8.45
2022-11-19T08:01:13.077Z,7.85
2022-11-19T08:02:46.308Z,9.50
2022-11-19T08:04:19.529Z,7.20
2022-11-19T08:05:52.659Z,8.75
2022-11-19T08:07:26.132Z,6.40
2022-11-19T08:08:59.321Z,5.45
2022-11-19T08:10:32.541Z,5.40
2022-11-19T08:12:06.134Z,7.25
2022-11-19T08:13:40.529Z,5.28
2022-11-19T08:15:13.645Z,5.55
2022-11-19T08:17:05.549Z,4.05
2022-11-19T08:18:39.448Z,7.80
2022-11-19T08:20:13.057Z,6.75
2022-11-19T08:21:48.077Z,5.13
2022-11-19T08:23:21.478Z,6.90
2022-11-19T08:24:54.611Z,13.65
2022-11-19T08:26:28.072Z,4.47
2022-11-19T08:28:01.291Z,11.77
2022-11-19T08:29:34.544Z,9.40
2022-11-19T08:31:08.863Z,5.10
2022-11-19T08:32:43.592Z,7.82
2022-11-19T08:34:17.983Z,9.40
2022-11-19T08:35:55.773Z,135.18
2022-11-19T08:37:28.950Z,11.52
2022-11-19T08:39:04.119Z,5.05
2022-11-19T08:40:37.893Z,5.35
2022-11-19T08:42:28.748Z,3.53
2022-11-19T08:44:01.185Z,9.27
2022-11-19T08:45:36.145Z,5.80
2022-11-19T08:47:08.335Z,7.78
2022-11-19T08:48:42.929Z,2.40
2022-11-19T08:50:16.750Z,2.95
2022-11-19T08:51:50.272Z,2.67
2022-11-19T08:53:23.439Z,3.05
2022-11-19T08:54:56.618Z,3.47
2022-11-19T08:56:29.781Z,4.90
2022-11-19T08:58:03.720Z,5.10
2022-11-19T08:59:36.879Z,6.15
2022-11-19T09:01:11.591Z,2.78
2022-11-19T09:02:44.886Z,3.53
2022-11-19T09:04:19.860Z,3.97
2022-11-19T09:06:00.026Z,6.10
2022-11-19T09:07:33.342Z,3.38
2022-11-19T09:09:06.533Z,3.60
2022-11-19T09:10:39.967Z,2.53
2022-11-19T09:12:13.241Z,3.38
2022-11-19T09:13:46.577Z,2.72
2022-11-19T09:15:20.119Z,3.00
2022-11-19T09:16:53.523Z,4.25
2022-11-19T09:18:26.755Z,3.17
2022-11-19T09:20:01.452Z,2.67
2022-11-19T09:21:34.571Z,2.08
2022-11-19T09:23:08.043Z,2.80
2022-11-19T09:24:41.199Z,4.22
2022-11-19T09:26:17.099Z,5.80
2022-11-19T09:27:50.238Z,3.20
2022-11-19T09:29:23.602Z,3.60
2022-11-19T09:30:57.972Z,4.40
2022-11-19T09:32:31.189Z,6.40
2022-11-19T09:34:04.386Z,3.35
2022-11-19T09:35:39.547Z,8.52
2022-11-19T09:37:12.702Z,4.22
2022-11-19T09:38:46.241Z,4.00
2022-11-19T09:40:23.283Z,5.60
2022-11-19T09:42:02.397Z,4.72
2022-11-19T09:43:44.675Z,3.45
2022-11-19T09:45:23.689Z,2.90
2022-11-19T09:47:05.347Z,5.40
2022-11-19T09:48:40.299Z,6.57
2022-11-19T09:50:19.201Z,36.17
2022-11-19T09:51:58.593Z,6.20
2022-11-19T09:53:35.975Z,8.15
2022-11-19T09:55:19.962Z,4.05
2022-11-19T09:57:01.754Z,4.65
2022-11-19T09:58:41.574Z,3.78
2022-11-19T10:00:19.886Z,4.72
2022-11-19T10:01:53.793Z,3.45
2022-11-19T10:03:33.133Z,3.80
2022-11-19T10:05:08.124Z,3.10
2022-11-19T10:06:50.232Z,3.25
2022-11-19T10:08:37.741Z,4.25
2022-11-19T10:10:24.356Z,3.33
2022-11-19T10:12:12.420Z,3.03
2022-11-19T10:13:56.969Z,4.57
2022-11-19T10:15:38.197Z,3.35
2022-11-19T10:17:23.461Z,3.80
2022-11-19T10:19:07.781Z,3.05
2022-11-19T10:20:54.289Z,3.90
2022-11-19T10:22:36.062Z,3.33
2022-11-19T10:24:18.454Z,7.03
2022-11-19T10:25:59.770Z,3.80
2022-11-19T10:27:40.923Z,3.00
2022-11-19T10:29:18.281Z,3.45
2022-11-19T10:30:55.321Z,7.30
2022-11-19T10:32:33.495Z,4.20
2022-11-19T10:34:14.282Z,2.55
2022-11-19T10:35:51.896Z,3.97
2022-11-19T10:37:28.321Z,2.85
2022-11-19T10:39:08.440Z,2.95
2022-11-19T10:40:46.713Z,3.55
2022-11-19T10:42:24.394Z,3.30
2022-11-19T10:44:04.092Z,4.07
2022-11-19T10:45:37.508Z,2.83
2022-11-19T10:47:17.672Z,2.33
2022-11-19T10:48:53.515Z,3.17
2022-11-19T10:50:27.379Z,4.47
2022-11-19T10:52:00.689Z,12.68
2022-11-19T10:53:36.896Z,5.40
2022-11-19T10:55:18.585Z,2.63
2022-11-19T10:56:55.319Z,2.13
2022-11-19T10:58:33.595Z,3.78
2022-11-19T11:00:07.867Z,5.97
2022-11-19T11:01:44.573Z,3.22
2022-11-19T11:03:25.017Z,2.40
2022-11-19T11:05:12.463Z,9.70
2022-11-19T11:06:54.496Z,9.75
2022-11-19T11:08:27.724Z,7.63
2022-11-19T11:10:00.877Z,6.97
2022-11-19T11:11:48.994Z,6.55
2022-11-19T11:13:57.260Z,3.67
2022-11-19T11:15:30.494Z,3.00
2022-11-19T11:17:05.147Z,3.05
2022-11-19T11:18:40.832Z,3.28
2022-11-19T11:20:27.316Z,2.80
2022-11-19T11:22:01.386Z,4.57
2022-11-19T11:23:34.526Z,3.40
2022-11-19T11:25:20.616Z,6.75
2022-11-19T11:27:20.241Z,2.75
2022-11-19T11:29:01.363Z,2.80
2022-11-19T11:30:35.911Z,3.30
2022-11-19T11:32:28.581Z,3.05
2022-11-19T11:34:02.736Z,4.72
2022-11-19T11:35:38.784Z,5.25
2022-11-19T11:37:13.107Z,4.22
2022-11-19T11:38:48.895Z,3.47
2022-11-19T11:40:23.260Z,3.30
2022-11-19T11:42:06.607Z,3.60
2022-11-19T11:44:01.368Z,3.80
2022-11-19T11:45:38.382Z,3.53
2022-11-19T11:47:14.029Z,3.70
2022-11-19T11:48:50.394Z,3.15
2022-11-19T11:50:27.171Z,10.80
2022-11-19T11:52:08.437Z,9.07
2022-11-19T11:53:43.028Z,3.63
2022-11-19T11:55:31.731Z,4.15
2022-11-19T11:57:16.023Z,3.10
2022-11-19T11:58:49.272Z,2.58
2022-11-19T12:00:37.159Z,3.63
2022-11-19T12:02:21.180Z,4.75
2022-11-19T12:03:56.550Z,5.55
2022-11-19T12:05:35.447Z,6.10
2022-11-19T12:07:17.631Z,4.28
2022-11-19T12:08:58.952Z,5.10
2022-11-19T12:10:41.793Z,3.67
2022-11-19T12:12:24.635Z,3.03
2022-11-19T12:14:09.519Z,3.38
2022-11-19T12:15:55.520Z,2.08
2022-11-19T12:17:41.724Z,4.05
2022-11-19T12:19:32.509Z,3.20
2022-11-19T12:21:11.978Z,3.83
2022-11-19T12:23:10.526Z,10.35
2022-11-19T12:24:59.367Z,6.93
2022-11-19T12:26:42.264Z,3.28
2022-11-19T12:28:54.068Z,6.60
2022-11-19T12:30:33.460Z,2.97
2022-11-19T12:32:22.382Z,3.25
2022-11-19T12:34:12.076Z,2.85
2022-11-19T12:35:55.861Z,7.55
2022-11-19T12:37:48.109Z,6.68
2022-11-19T12:39:34.016Z,12.30
2022-11-19T12:41:54.153Z,11.48
2022-11-19T12:43:52.703Z,7.32
2022-11-19T12:45:38.059Z,2.75
2022-11-19T12:47:23.539Z,3.35
2022-11-19T12:49:16.853Z,5.80
2022-11-19T12:50:58.588Z,2.63
2022-11-19T12:52:54.948Z,5.70
2022-11-19T12:54:42.705Z,2.03
2022-11-19T12:56:31.499Z,1.83
2022-11-19T12:58:16.123Z,2.47
2022-11-19T13:00:14.027Z,5.57
2022-11-19T13:01:51.347Z,2.78
2022-11-19T13:03:37.659Z,3.85
2022-11-19T13:05:15.938Z,4.13
2022-11-19T13:06:53.300Z,6.25
2022-11-19T13:08:33.672Z,5.43
2022-11-19T13:10:14.744Z,4.63
2022-11-19T13:11:54.579Z,6.20
2022-11-19T13:13:30.848Z,6.20
2022-11-19T13:15:07.663Z,5.35
2022-11-19T13:16:42.866Z,5.15
2022-11-19T13:18:18.901Z,5.68
2022-11-19T13:19:57.341Z,5.63
2022-11-19T13:21:36.560Z,4.45
2022-11-19T13:23:16.860Z,5.50
2022-11-19T13:24:55.751Z,6.72
2022-11-19T13:26:33.195Z,5.38
2022-11-19T13:28:15.898Z,3.35
2022-11-19T13:29:54.240Z,4.72
2022-11-19T13:31:34.543Z,4.80
2022-11-19T13:33:15.356Z,3.35
2022-11-19T13:35:02.781Z,3.85
2022-11-19T13:36:42.899Z,5.78
2022-11-19T13:38:23.572Z,4.68
2022-11-19T13:40:04.433Z,7.55
2022-11-19T13:42:01.699Z,3.58
2022-11-19T13:43:53.388Z,3.95
2022-11-19T13:45:26.832Z,5.65
2022-11-19T13:47:01.794Z,5.53
2022-11-19T13:48:39.741Z,8.23
2022-11-19T13:50:19.645Z,12.40
2022-11-19T13:51:56.926Z,16.48
2022-11-19T13:53:35.564Z,13.57
2022-11-19T13:55:27.845Z,15.00
2022-11-19T13:57:02.500Z,9.55
2022-11-19T13:58:38.567Z,12.35
2022-11-19T14:00:24.855Z,11.50
2022-11-19T14:02:27.498Z,10.98
2022-11-19T14:04:26.871Z,17.52
2022-11-19T14:06:32.514Z,17.85
2022-11-19T14:08:26.949Z,11.23
2022-11-19T14:10:09.494Z,10.30
2022-11-19T14:12:10.825Z,6.38
2022-11-19T14:14:01.796Z,8.13
2022-11-19T14:16:03.227Z,7.63
2022-11-19T14:18:01.419Z,13.23
2022-11-19T14:20:07.674Z,9.77
2022-11-19T14:22:22.549Z,11.57
2022-11-19T14:24:27.634Z,6.80
2022-11-19T14:26:21.949Z,4.35
2022-11-19T14:27:55.193Z,5.15
2022-11-19T14:29:58.709Z,5.82
2022-11-19T14:31:31.977Z,6.00
2022-11-19T14:33:43.751Z,12.77
2022-11-19T14:35:40.144Z,3.55
2022-11-19T14:37:18.472Z,4.70
2022-11-19T14:38:55.459Z,8.35
2022-11-19T14:40:31.138Z,4.10
2022-11-19T14:42:15.112Z,4.18
2022-11-19T14:44:08.432Z,4.30
2022-11-19T14:45:41.667Z,5.97
2022-11-19T14:47:36.201Z,2.92
2022-11-19T14:49:24.637Z,5.75
2022-11-19T14:51:06.303Z,4.47
2022-11-19T14:52:50.593Z,3.65
2022-11-19T14:54:40.991Z,5.65
2022-11-19T14:56:15.703Z,6.45
2022-11-19T14:57:57.875Z,22.40
2022-11-19T14:59:35.646Z,4.63
2022-11-19T15:01:16.747Z,5.60
2022-11-19T15:02:55.370Z,15.70
2022-11-19T15:04:33.670Z,11.48
2022-11-19T15:06:09.481Z,6.32
2022-11-19T15:07:45.608Z,4.85
2022-11-19T15:09:52.817Z,4.97
2022-11-19T15:11:46.259Z,7.28
2022-11-19T15:13:28.263Z,6.43
2022-11-19T15:15:32.756Z,3.45
2022-11-19T15:17:07.510Z,6.90
2022-11-19T15:19:17.386Z,6.22
2022-11-19T15:21:12.152Z,6.60
2022-11-19T15:22:55.634Z,5.80
2022-11-19T15:24:42.708Z,7.28
2022-11-19T15:26:22.949Z,11.43
2022-11-19T15:28:03.748Z,10.57
2022-11-19T15:29:58.211Z,12.93
2022-11-19T15:31:45.483Z,13.27
2022-11-19T15:33:43.312Z,21.55
2022-11-19T15:35:57.193Z,17.70
2022-11-19T15:37:40.876Z,13.80
2022-11-19T15:39:18.666Z,16.35
2022-11-19T15:40:56.301Z,11.73
2022-11-19T15:42:35.904Z,11.07
2022-11-19T15:44:14.228Z,9.00
2022-11-19T15:45:53.352Z,10.18
2022-11-19T15:47:34.855Z,25.75
2022-11-19T15:49:15.704Z,11.15
2022-11-19T15:50:49.748Z,11.25
2022-11-19T15:52:27.448Z,13.10
2022-11-19T15:54:04.147Z,15.75
2022-11-19T15:55:37.907Z,15.13
2022-11-19T15:57:23.418Z,14.85
2022-11-19T15:58:57.383Z,14.65
2022-11-19T16:00:30.568Z,19.90
2022-11-19T16:02:07.186Z,28.83
2022-11-19T16:03:41.047Z,26.63
2022-11-19T16:05:21.270Z,17.20
2022-11-19T16:06:55.923Z,21.15
2022-11-19T16:08:29.890Z,29.70
2022-11-19T16:10:05.801Z,13.40
2022-11-19T16:11:56.848Z,10.05
2022-11-19T16:13:47.761Z,15.23
2022-11-19T16:15:41.415Z,10.52
2022-11-19T16:17:43.181Z,7.55
2022-11-19T16:19:19.055Z,7.35
2022-11-19T16:20:53.911Z,6.78
2022-11-19T16:22:27.392Z,4.55
2022-11-19T16:24:16.243Z,7.15
2022-11-19T16:25:51.917Z,7.05
2022-11-19T16:27:26.489Z,10.88
2022-11-19T16:29:02.681Z,5.30
2022-11-19T16:30:47.023Z,10.70
2022-11-19T16:32:22.406Z,19.15
2022-11-19T16:33:56.047Z,11.77
2022-11-19T16:35:31.652Z,12.15
2022-11-19T16:37:04.939Z,15.15
2022-11-19T16:38:40.529Z,20.20
2022-11-19T16:40:16.957Z,10.63
2022-11-19T16:42:14.307Z,8.90
2022-11-19T16:43:49.665Z,8.50
2022-11-19T16:45:25.188Z,8.57
2022-11-19T16:47:05.308Z,8.43
2022-11-19T16:49:03.585Z,9.25
2022-11-19T16:50:41.139Z,7.72
2022-11-19T16:52:42.380Z,10.48
2022-11-19T16:54:46.687Z,7.18
2022-11-19T16:56:20.227Z,6.75
2022-11-19T16:57:56.570Z,11.07
2022-11-19T16:59:29.859Z,10.32
2022-11-19T17:01:04.074Z,7.10
2022-11-19T17:02:40.706Z,8.00
2022-11-19T17:04:15.607Z,7.63
2022-11-19T17:05:52.002Z,8.50
2022-11-19T17:07:27.946Z,6.88
2022-11-19T17:09:02.349Z,9.13
2022-11-19T17:10:35.530Z,10.82
2022-11-19T17:12:25.109Z,8.35
2022-11-19T17:14:00.096Z,12.63
2022-11-19T17:15:36.893Z,13.07
2022-11-19T17:17:40.952Z,19.25
2022-11-19T17:19:16.859Z,21.17
2022-11-19T17:20:55.268Z,61.35
2022-11-19T17:22:32.439Z,27.17
2022-11-19T17:24:06.467Z,21.17
2022-11-19T17:25:46.951Z,12.85
2022-11-19T17:27:28.093Z,12.55
2022-11-19T17:29:12.403Z,10.73
2022-11-19T17:30:49.263Z,9.25
2022-11-19T17:32:22.476Z,13.40
2022-11-19T17:33:57.327Z,4.35
2022-11-19T17:35:34.223Z,9.75
2022-11-19T17:37:10.027Z,10.38
2022-11-19T17:38:43.282Z,4.78
2022-11-19T17:40:16.615Z,3.17
2022-11-19T17:42:07.476Z,4.00
2022-11-19T17:44:13.338Z,5.03
2022-11-19T17:45:47.938Z,6.15
2022-11-19T17:47:23.805Z,4.47
2022-11-19T17:48:58.062Z,4.45
2022-11-19T17:50:31.242Z,8.02
2022-11-19T17:52:04.579Z,15.23
2022-11-19T17:53:37.709Z,19.08
2022-11-19T17:55:18.936Z,10.68
2022-11-19T17:56:52.159Z,12.43
2022-11-19T17:58:25.561Z,11.07
2022-11-19T17:59:58.733Z,11.00
2022-11-19T18:01:33.432Z,19.25
2022-11-19T18:03:06.720Z,18.20
2022-11-19T18:04:39.900Z,12.07
2022-11-19T18:06:13.980Z,10.00
2022-11-19T18:07:47.491Z,6.97
2022-11-19T18:09:21.012Z,5.20
2022-11-19T18:10:54.416Z,7.20
2022-11-19T18:12:27.592Z,6.47
2022-11-19T18:14:03.217Z,5.82
2022-11-19T18:15:36.542Z,6.68
2022-11-19T18:17:13.478Z,5.40
2022-11-19T18:18:47.048Z,3.17
2022-11-19T18:20:20.287Z,5.53
2022-11-19T18:21:53.979Z,5.53
2022-11-19T18:23:27.164Z,8.13
2022-11-19T18:25:00.339Z,4.30
2022-11-19T18:26:33.609Z,6.18
2022-11-19T18:28:06.892Z,6.72
2022-11-19T18:29:40.076Z,5.45
2022-11-19T18:31:16.489Z,5.72
2022-11-19T18:32:51.167Z,4.75
2022-11-19T18:34:25.459Z,4.30
2022-11-19T18:35:58.637Z,10.57
2022-11-19T18:37:32.209Z,7.32
2022-11-19T18:39:05.519Z,6.43
2022-11-19T18:40:39.043Z,4.13
2022-11-19T18:42:12.975Z,5.15
2022-11-19T18:44:03.398Z,3.92
2022-11-19T18:45:36.688Z,6.47
2022-11-19T18:47:12.478Z,2.60
2022-11-19T18:48:47.299Z,5.47
2022-11-19T18:50:21.842Z,3.20
2022-11-19T18:51:56.678Z,4.90
2022-11-19T18:53:29.907Z,4.13
2022-11-19T18:55:03.144Z,2.83
2022-11-19T18:56:36.301Z,4.93
2022-11-19T18:58:09.605Z,8.18
2022-11-19T18:59:43.028Z,5.63
2022-11-19T19:01:17.286Z,6.07
2022-11-19T19:02:50.699Z,7.47
2022-11-19T19:04:25.616Z,9.45
2022-11-19T19:06:01.848Z,9.43
2022-11-19T19:07:35.939Z,4.13
2022-11-19T19:09:10.461Z,10.10
2022-11-19T19:10:43.695Z,12.32
2022-11-19T19:12:18.853Z,12.18
2022-11-19T19:13:52.064Z,16.55
2022-11-19T19:15:25.230Z,17.20
2022-11-19T19:16:58.610Z,13.68
2022-11-19T19:18:31.897Z,18.52
2022-11-19T19:20:08.069Z,15.80
2022-11-19T19:21:41.494Z,18.55
2022-11-19T19:23:14.788Z,12.60
2022-11-19T19:24:48.276Z,12.65
2022-11-19T19:26:22.073Z,12.00
2022-11-19T19:27:55.708Z,18.88
2022-11-19T19:29:29.181Z,38.65
2022-11-19T19:31:02.396Z,43.10
2022-11-19T19:32:35.770Z,19.63
2022-11-19T19:34:08.919Z,25.08
2022-11-19T19:35:44.000Z,25.80
2022-11-19T19:37:17.227Z,20.38
2022-11-19T19:38:50.740Z,16.52
2022-11-19T19:40:23.840Z,42.05
2022-11-19T19:41:57.085Z,49.03
2022-11-19T19:43:30.716Z,52.78
2022-11-19T19:45:03.989Z,21.13
2022-11-19T19:46:37.459Z,23.05
2022-11-19T19:48:10.765Z,22.70
2022-11-19T19:49:44.025Z,16.50
2022-11-19T19:51:20.696Z,21.77
2022-11-19T19:52:53.879Z,24.17
2022-11-19T19:54:27.187Z,32.28
2022-11-19T19:56:04.066Z,42.65
2022-11-19T19:57:37.448Z,60.58
2022-11-19T19:59:12.917Z,58.20
2022-11-19T20:00:45.139Z,73.35
2022-11-19T20:02:18.373Z,67.80
2022-11-19T20:03:54.683Z,57.17
2022-11-19T20:05:28.207Z,56.33
2022-11-19T20:07:02.872Z,55.50
2022-11-19T20:08:36.553Z,44.45
2022-11-19T20:10:10.480Z,30.05
2022-11-19T20:11:43.660Z,23.35
2022-11-19T20:13:28.532Z,19.23
2022-11-19T20:15:02.144Z,13.68
2022-11-19T20:16:36.201Z,13.50
2022-11-19T20:18:09.348Z,11.68
2022-11-19T20:19:42.705Z,12.05
2022-11-19T20:21:18.345Z,16.45
2022-11-19T20:22:53.131Z,11.48
2022-11-19T20:24:26.301Z,9.07
2022-11-19T20:26:00.647Z,8.43
2022-11-19T20:27:33.870Z,9.52
2022-11-19T20:29:08.924Z,10.20
2022-11-19T20:30:42.335Z,12.52
2022-11-19T20:32:15.810Z,12.23
2022-11-19T20:33:53.263Z,13.05
2022-11-19T20:35:26.551Z,13.65
2022-11-19T20:36:59.724Z,14.90
2022-11-19T20:38:36.423Z,15.57
2022-11-19T20:40:10.934Z,18.73
2022-11-19T20:42:01.619Z,15.70
2022-11-19T20:43:53.510Z,13.18
2022-11-19T20:45:26.861Z,15.10
2022-11-19T20:47:02.060Z,12.35
2022-11-19T20:48:35.340Z,18.75
2022-11-19T20:50:09.292Z,19.27
2022-11-19T20:51:43.115Z,15.45
2022-11-19T20:53:16.259Z,19.05
2022-11-19T20:54:51.307Z,14.93
2022-11-19T20:56:24.396Z,12.75
2022-11-19T20:57:57.651Z,11.05
2022-11-19T20:59:31.104Z,9.38
2022-11-19T21:01:06.269Z,12.50
2022-11-19T21:02:39.862Z,13.60
2022-11-19T21:04:13.427Z,7.57
2022-11-19T21:05:46.557Z,6.20
2022-11-19T21:07:19.992Z,12.77
2022-11-19T21:08:53.563Z,9.32
2022-11-19T21:10:28.301Z,8.32
2022-11-19T21:12:01.550Z,9.52
2022-11-19T21:13:34.934Z,7.65
2022-11-19T21:15:09.513Z,6.25
2022-11-19T21:16:42.805Z,6.68
2022-11-19T21:18:16.111Z,5.28
2022-11-19T21:19:49.412Z,7.75
2022-11-19T21:21:24.529Z,11.70